Time;durP1;ratioP1;P1;durP2;ratioP2;P2;SDS_P1;SDS_P2;PMS_P1;PMS_P2;Temp;Humidity;BMP_temperature;BMP_pressure;BME280_temperature;BME280_humidity;BME280_pressure;Samples;Min_cycle;Max_cycle;Signal;HPM_P1;HPM_P2
2021/09/26 00:01:57;;;;;;;7.32;6.63;;;;;;;14.63;94.04;101006.88;4990994;28;20134;-83
2021/09/26 00:04:24;;;;;;;7.10;5.40;;;;;;;14.54;94.23;101009.72;4993042;28;20079;-82
2021/09/26 00:06:51;;;;;;;6.90;6.20;;;;;;;14.46;94.85;101009.84;4991098;28;20034;-83
2021/09/26 00:09:17;;;;;;;6.95;6.13;;;;;;;14.40;95.09;101012.59;4975723;28;20053;-81
2021/09/26 00:11:44;;;;;;;7.25;6.45;;;;;;;14.34;95.32;101008.34;4994455;28;20046;-83
2021/09/26 00:14:14;;;;;;;8.77;6.50;;;;;;;14.28;95.56;101016.34;4976881;28;20145;-83
2021/09/26 00:16:41;;;;;;;6.75;5.70;;;;;;;14.22;96.02;101011.16;4991988;28;20049;-85
2021/09/26 00:21:49;;;;;;;7.25;6.38;;;;;;;14.13;96.78;101012.22;4987885;28;20482;-81
2021/09/26 00:24:17;;;;;;;7.93;6.22;;;;;;;14.11;96.69;101019.28;4975623;28;20125;-81
2021/09/26 00:26:44;;;;;;;7.50;6.05;;;;;;;14.08;96.95;101016.72;4991261;28;20058;-81
2021/09/26 00:29:11;;;;;;;7.50;6.53;;;;;;;14.06;97.18;101023.75;4974768;28;20776;-82
2021/09/26 00:31:39;;;;;;;8.48;6.55;;;;;;;14.04;97.15;101017.63;4976885;28;20573;-82
2021/09/26 00:34:06;;;;;;;8.75;7.32;;;;;;;14.02;97.90;101022.94;4992390;28;20505;-81
2021/09/26 00:36:33;;;;;;;8.50;6.43;;;;;;;13.98;97.84;101016.00;4990855;28;20549;-83
2021/09/26 00:38:59;;;;;;;6.78;6.05;;;;;;;13.95;97.71;101008.16;4991226;28;20416;-81
2021/09/26 00:41:26;;;;;;;8.25;6.05;;;;;;;13.92;97.85;101016.09;4993320;28;20039;-81
2021/09/26 00:43:53;;;;;;;7.57;6.50;;;;;;;13.89;97.90;101009.09;4992570;28;20129;-81
2021/09/26 00:46:23;;;;;;;11.82;8.50;;;;;;;13.86;98.06;101016.22;4977781;28;20050;-83
2021/09/26 00:48:49;;;;;;;12.23;9.10;;;;;;;13.83;98.42;101013.63;4976650;28;20046;-81
2021/09/26 00:51:18;;;;;;;8.95;6.60;;;;;;;13.79;98.39;101010.16;4988693;28;20054;-82
2021/09/26 00:53:45;;;;;;;7.00;6.13;;;;;;;13.76;98.93;101007.59;4975876;28;20042;-83
2021/09/26 00:56:13;;;;;;;7.63;6.00;;;;;;;13.73;98.89;101003.25;4976508;28;20053;-83
2021/09/26 00:58:40;;;;;;;6.95;6.18;;;;;;;13.69;98.87;101008.59;4993143;28;20413;-83
2021/09/26 01:01:07;;;;;;;7.32;5.80;;;;;;;13.66;99.34;100998.09;4974594;28;20042;-83
2021/09/26 01:03:34;;;;;;;8.40;6.78;;;;;;;13.62;99.28;101002.53;4975157;28;20046;-83
2021/09/26 01:06:34;;;;;;;6.93;6.22;;;;;;;13.59;99.45;100999.97;4991548;28;20050;-84
2021/09/26 01:09:13;;;;;;;6.78;5.38;;;;;;;13.57;99.46;101002.63;4990664;28;20046;-82
2021/09/26 01:12:34;;;;;;;8.93;5.95;;;;;;;13.57;99.81;101002.63;4970888;28;20141;-83
2021/09/26 01:15:12;;;;;;;8.52;6.18;;;;;;;13.54;99.84;101000.03;4991711;28;20092;-83
2021/09/26 01:17:52;;;;;;;7.93;6.57;;;;;;;13.53;99.76;101000.06;4989884;28;20055;-83
2021/09/26 01:20:51;;;;;;;6.72;5.68;;;;;;;13.50;100.00;101008.88;4991192;28;20128;-82
2021/09/26 01:23:43;;;;;;;9.13;7.03;;;;;;;13.49;100.00;101016.78;4992188;28;20050;-83
2021/09/26 01:26:44;;;;;;;11.05;6.55;;;;;;;13.46;100.00;101016.84;5017255;28;20045;-87
2021/09/26 01:29:45;;;;;;;6.13;5.38;;;;;;;13.42;100.00;101010.75;4999180;28;20097;-83
2021/09/26 01:32:14;;;;;;;6.70;5.93;;;;;;;13.37;100.00;101010.81;5008829;28;20058;-84
2021/09/26 01:34:52;;;;;;;5.68;5.13;;;;;;;13.31;100.00;101010.88;4989101;28;20556;-84
2021/09/26 01:37:32;;;;;;;7.07;6.10;;;;;;;13.27;100.00;101011.84;4976673;28;20417;-83
2021/09/26 01:40:20;;;;;;;6.63;5.90;;;;;;;13.24;100.00;101009.22;4992803;28;20050;-82
2021/09/26 01:42:51;;;;;;;5.68;5.07;;;;;;;13.20;100.00;101013.66;4996743;28;20042;-85
2021/09/26 01:45:22;;;;;;;6.90;5.47;;;;;;;13.16;100.00;101009.34;4995358;28;20061;-84
2021/09/26 01:48:05;;;;;;;7.35;5.93;;;;;;;13.14;100.00;101007.63;4976241;28;20046;-83
2021/09/26 01:50:35;;;;;;;5.50;4.93;;;;;;;13.08;100.00;101006.81;4996676;28;20398;-83
2021/09/26 01:53:02;;;;;;;6.13;5.50;;;;;;;13.06;100.00;100995.47;4979967;28;20051;-82
2021/09/26 01:55:30;;;;;;;6.38;4.80;;;;;;;13.04;100.00;100988.50;4994185;28;20046;-83
2021/09/26 01:57:59;;;;;;;6.10;5.43;;;;;;;13.02;100.00;100998.13;4997161;28;20051;-82
2021/09/26 02:00:26;;;;;;;7.15;5.13;;;;;;;13.00;100.00;101000.78;4997463;28;20137;-83
2021/09/26 02:02:53;;;;;;;6.45;5.30;;;;;;;12.98;100.00;100999.06;4996795;28;20042;-82
2021/09/26 02:05:21;;;;;;;14.25;5.38;;;;;;;12.94;100.00;100997.38;4982221;28;20061;-85
2021/09/26 02:07:52;;;;;;;7.28;5.45;;;;;;;12.93;100.00;100999.13;5000309;28;20046;-83
2021/09/26 02:10:23;;;;;;;8.57;5.93;;;;;;;12.96;100.00;100993.84;5007295;28;20069;-84
2021/09/26 02:12:50;;;;;;;8.10;5.22;;;;;;;12.94;100.00;100985.09;5007714;28;20046;-82
2021/09/26 02:15:21;;;;;;;6.07;4.78;;;;;;;12.92;100.00;100994.78;5009030;28;20066;-84
2021/09/26 02:17:49;;;;;;;7.88;5.72;;;;;;;12.88;100.00;100991.31;5008202;28;20045;-84
2021/09/26 02:20:18;;;;;;;6.45;5.80;;;;;;;12.85;100.00;100991.38;5005678;28;20524;-83
2021/09/26 02:22:48;;;;;;;6.95;5.20;;;;;;;12.81;100.00;100996.66;5002072;28;20073;-84
2021/09/26 02:25:18;;;;;;;6.95;5.63;;;;;;;12.76;100.00;100991.47;4996967;28;20046;-82
2021/09/26 02:27:45;;;;;;;5.75;4.75;;;;;;;12.71;100.00;100999.41;4979205;28;20047;-83
2021/09/26 02:30:13;;;;;;;7.88;5.63;;;;;;;12.66;100.00;100992.47;4993834;28;20074;-82
2021/09/26 02:32:42;;;;;;;6.32;5.30;;;;;;;12.61;100.00;100989.06;4981425;28;20148;-83
2021/09/26 02:35:09;;;;;;;6.57;5.15;;;;;;;12.56;100.00;100991.72;4989609;28;20050;-83
2021/09/26 02:37:38;;;;;;;7.55;6.05;;;;;;;12.53;100.00;100989.13;4996510;28;20054;-82
2021/09/26 02:40:09;;;;;;;7.60;5.75;;;;;;;12.51;100.00;100989.13;4994970;28;20070;-82
2021/09/26 02:42:57;;;;;;;5.90;4.35;;;;;;;12.48;100.00;100985.69;4985408;28;20051;-82
2021/09/26 02:45:35;;;;;;;6.68;5.45;;;;;;;12.44;100.00;100982.22;5006595;28;20065;-83
2021/09/26 02:48:15;;;;;;;6.00;5.45;;;;;;;12.40;100.00;100978.75;4979492;28;20477;-82
2021/09/26 02:50:47;;;;;;;6.28;5.32;;;;;;;12.38;100.00;100990.16;4977029;28;20072;-84
2021/09/26 02:53:15;;;;;;;8.10;5.07;;;;;;;12.35;100.00;100982.34;4993536;28;20034;-83
2021/09/26 02:55:44;;;;;;;5.53;4.65;;;;;;;12.31;100.00;100972.75;4988298;28;20508;-84
2021/09/26 02:58:10;;;;;;;10.85;5.93;;;;;;;12.26;100.00;100974.56;4992178;28;20050;-83
2021/09/26 03:00:43;;;;;;;7.03;5.45;;;;;;;12.22;100.00;100977.19;4979131;28;20133;-84
2021/09/26 03:03:17;;;;;;;11.18;6.15;;;;;;;12.20;100.00;100976.38;4994885;28;20851;-82
2021/09/26 03:05:47;;;;;;;7.40;4.97;;;;;;;12.17;100.00;100970.28;4990720;28;20054;-83
2021/09/26 03:08:15;;;;;;;8.32;5.65;;;;;;;12.15;100.00;100970.28;4993051;28;20495;-83
2021/09/26 03:10:44;;;;;;;7.13;5.82;;;;;;;12.14;100.00;100965.94;4993340;28;20046;-82
2021/09/26 03:13:10;;;;;;;8.57;5.53;;;;;;;12.13;100.00;100968.56;4996101;28;20494;-82
2021/09/26 03:15:37;;;;;;;6.97;5.75;;;;;;;12.13;100.00;100960.69;4994830;28;20058;-83
2021/09/26 03:18:04;;;;;;;7.35;6.50;;;;;;;12.11;100.00;100960.72;4998365;28;20046;-83
2021/09/26 03:20:32;;;;;;;9.55;6.13;;;;;;;12.12;100.00;100959.81;5005264;28;20046;-82
2021/09/26 03:22:59;;;;;;;9.93;6.28;;;;;;;12.12;100.00;100964.19;4994079;28;20097;-83
2021/09/26 03:25:25;;;;;;;8.35;7.00;;;;;;;12.11;100.00;100957.22;4991813;28;20150;-82
2021/09/26 03:27:52;;;;;;;9.05;5.45;;;;;;;12.08;100.00;100956.38;4980449;28;20046;-82
2021/09/26 03:30:19;;;;;;;8.00;5.93;;;;;;;12.06;100.00;100954.66;4982366;28;20042;-82
2021/09/26 03:32:46;;;;;;;8.00;5.93;;;;;;;12.04;100.00;100953.78;4982945;28;20058;-81
2021/09/26 03:35:14;;;;;;;8.77;5.95;;;;;;;12.00;100.00;100959.94;4979649;28;20416;-84
2021/09/26 03:37:42;;;;;;;7.75;6.20;;;;;;;11.96;100.00;100943.38;4995148;28;20485;-80
2021/09/26 03:40:10;;;;;;;7.97;5.93;;;;;;;11.95;100.00;100946.88;4993407;28;20375;-82
2021/09/26 03:42:38;;;;;;;7.68;6.20;;;;;;;11.92;100.00;100941.63;4982496;28;20046;-81
2021/09/26 03:45:06;;;;;;;9.90;6.60;;;;;;;11.89;100.00;100939.03;4978611;28;20053;-81
2021/09/26 03:47:33;;;;;;;6.90;6.20;;;;;;;11.87;100.00;100943.41;4994101;28;20700;-82
2021/09/26 03:49:59;;;;;;;8.27;6.10;;;;;;;11.87;100.00;100939.03;4990160;28;20397;-83
2021/09/26 03:52:27;;;;;;;7.40;6.30;;;;;;;11.85;100.00;100942.56;5006765;28;20049;-82
2021/09/26 03:54:54;;;;;;;6.82;6.13;;;;;;;11.85;100.00;100946.06;4986699;28;20054;-82
2021/09/26 03:57:22;;;;;;;8.10;6.20;;;;;;;11.84;100.00;100935.59;4979839;28;20089;-82
2021/09/26 03:59:48;;;;;;;12.27;6.68;;;;;;;11.81;100.00;100939.13;4992018;28;20722;-82
2021/09/26 04:02:15;;;;;;;8.88;5.45;;;;;;;11.80;100.00;100936.47;4990692;28;20077;-82
2021/09/26 04:04:41;;;;;;;7.40;5.78;;;;;;;11.77;100.00;100934.75;4975211;28;20046;-82
2021/09/26 04:07:08;;;;;;;8.52;6.03;;;;;;;11.77;100.00;100936.53;4989782;28;20038;-83
2021/09/26 04:09:35;;;;;;;10.32;6.45;;;;;;;11.76;100.00;100938.28;4992264;28;20105;-81
2021/09/26 04:12:02;;;;;;;9.57;7.05;;;;;;;11.76;100.00;100943.53;4977329;28;20046;-82
2021/09/26 04:14:28;;;;;;;6.93;5.90;;;;;;;11.75;100.00;100936.53;4992584;28;20116;-82
2021/09/26 04:16:55;;;;;;;9.48;6.28;;;;;;;11.74;100.00;100945.28;4987298;28;20054;-81
2021/09/26 04:19:21;;;;;;;7.57;5.43;;;;;;;11.73;100.00;100939.19;4988085;28;20047;-80
2021/09/26 04:21:50;;;;;;;12.73;6.53;;;;;;;11.72;100.00;100944.41;4985931;28;20400;-81
2021/09/26 04:24:18;;;;;;;8.50;6.40;;;;;;;11.71;100.00;100947.94;4989003;28;20045;-82
2021/09/26 04:26:45;;;;;;;8.63;6.10;;;;;;;11.67;100.00;100944.47;4989599;28;20804;-82
2021/09/26 04:29:11;;;;;;;11.38;6.18;;;;;;;11.66;100.00;100941.88;4971432;28;20046;-81
2021/09/26 04:31:38;;;;;;;9.80;6.55;;;;;;;11.66;100.00;100939.25;4975505;28;20042;-82
2021/09/26 04:34:06;;;;;;;9.00;6.55;;;;;;;11.65;100.00;100930.50;4973638;28;20394;-82
2021/09/26 04:36:33;;;;;;;8.90;6.63;;;;;;;11.64;100.00;100928.78;4992179;28;20050;-82
2021/09/26 04:38:59;;;;;;;7.05;6.20;;;;;;;11.63;100.00;100923.53;4993150;28;20061;-83
2021/09/26 04:41:26;;;;;;;7.85;5.88;;;;;;;11.65;100.00;100927.03;4995963;28;20045;-84
2021/09/26 04:43:52;;;;;;;8.00;6.18;;;;;;;11.68;100.00;100933.13;4993923;28;20035;-82
2021/09/26 04:46:19;;;;;;;9.45;6.55;;;;;;;11.69;100.00;100937.47;4989047;28;20054;-82
2021/09/26 04:48:46;;;;;;;9.63;7.00;;;;;;;11.71;100.00;100925.22;4990174;28;20093;-81
2021/09/26 04:51:12;;;;;;;8.48;6.43;;;;;;;11.72;100.00;100926.94;4989907;28;20092;-82
2021/09/26 04:53:39;;;;;;;10.38;6.30;;;;;;;11.73;100.00;100928.69;5003779;28;20049;-82
2021/09/26 04:56:06;;;;;;;8.85;7.63;;;;;;;11.75;100.00;100931.28;4991002;28;20084;-81
2021/09/26 04:58:32;;;;;;;10.43;6.55;;;;;;;11.74;100.00;100927.78;4976934;28;20512;-82
2021/09/26 05:00:59;;;;;;;7.78;5.65;;;;;;;11.73;100.00;100931.31;4990168;28;20047;-83
2021/09/26 05:03:25;;;;;;;7.40;6.32;;;;;;;11.71;100.00;100930.44;4994160;28;20058;-82
2021/09/26 05:05:52;;;;;;;7.35;5.90;;;;;;;11.70;100.00;100938.34;4996307;28;20044;-81
2021/09/26 05:08:18;;;;;;;9.55;6.10;;;;;;;11.68;100.00;100940.97;4982256;28;20100;-80
2021/09/26 05:10:45;;;;;;;9.98;7.18;;;;;;;11.67;100.00;100931.38;4980867;28;20142;-80
2021/09/26 05:13:12;;;;;;;7.50;6.03;;;;;;;11.65;100.00;100920.00;4982263;28;20042;-82
2021/09/26 05:15:38;;;;;;;7.25;6.18;;;;;;;11.65;100.00;100921.78;4990174;28;20062;-83
2021/09/26 05:18:08;;;;;;;8.15;6.20;;;;;;;11.62;100.00;100925.28;5008359;28;20037;-85
2021/09/26 05:20:35;;;;;;;10.27;6.45;;;;;;;11.64;100.00;100933.13;5007913;28;20050;-82
2021/09/26 05:23:01;;;;;;;8.15;6.22;;;;;;;11.62;100.00;100935.78;4996258;28;20035;-81
2021/09/26 05:25:29;;;;;;;11.15;6.75;;;;;;;11.62;100.00;100924.44;4975273;28;20050;-81
2021/09/26 05:27:56;;;;;;;6.72;5.93;;;;;;;11.64;100.00;100925.28;4986473;28;20119;-83
2021/09/26 05:30:23;;;;;;;8.10;5.97;;;;;;;11.67;100.00;100930.50;4989668;28;20120;-83
2021/09/26 05:32:49;;;;;;;7.97;6.38;;;;;;;11.69;100.00;100931.34;5007256;28;20548;-81
2021/09/26 05:35:16;;;;;;;9.73;6.40;;;;;;;11.70;100.00;100928.69;4979557;28;20038;-81
2021/09/26 05:37:42;;;;;;;7.60;6.15;;;;;;;11.73;100.00;100933.94;5007218;28;20042;-81
2021/09/26 05:40:10;;;;;;;7.18;6.47;;;;;;;11.77;100.00;100926.03;4994927;28;20073;-82
2021/09/26 05:42:36;;;;;;;7.90;6.45;;;;;;;11.83;100.00;100931.22;4980848;28;20049;-85
2021/09/26 05:45:04;;;;;;;10.10;6.53;;;;;;;11.88;100.00;100926.81;4977757;28;20109;-85
2021/09/26 05:47:30;;;;;;;6.85;5.90;;;;;;;11.95;100.00;100920.63;4978209;28;20137;-84
2021/09/26 05:49:57;;;;;;;5.63;5.00;;;;;;;12.06;100.00;100921.41;4993437;28;20042;-83
2021/09/26 05:52:23;;;;;;;6.45;5.63;;;;;;;12.19;100.00;100921.25;4989947;28;20054;-84
2021/09/26 05:54:50;;;;;;;9.77;5.45;;;;;;;12.32;100.00;100916.72;4991125;28;20469;-83
2021/09/26 05:57:17;;;;;;;5.40;4.53;;;;;;;12.46;100.00;100916.56;4990290;28;20049;-83
2021/09/26 05:59:43;;;;;;;7.78;6.00;;;;;;;12.60;100.00;100909.38;4993032;28;20495;-84
2021/09/26 06:02:11;;;;;;;6.45;4.63;;;;;;;12.72;100.00;100910.97;4971467;28;20046;-82
2021/09/26 06:04:38;;;;;;;6.03;4.35;;;;;;;12.83;100.00;100914.31;4976867;28;20050;-82
2021/09/26 06:07:05;;;;;;;7.60;4.82;;;;;;;12.93;100.00;100916.81;4992541;28;20437;-83
2021/09/26 06:09:32;;;;;;;11.60;4.95;;;;;;;12.98;100.00;100909.72;4979050;28;20077;-83
2021/09/26 06:11:59;;;;;;;7.43;4.60;;;;;;;12.97;100.00;100910.63;4976904;28;20046;-84
2021/09/26 06:14:25;;;;;;;5.70;5.00;;;;;;;12.96;100.00;100906.25;4991344;28;20042;-83
2021/09/26 06:16:52;;;;;;;7.85;5.47;;;;;;;12.94;100.00;100901.00;4997909;28;20058;-85
2021/09/26 06:19:18;;;;;;;6.35;4.72;;;;;;;12.98;100.00;100907.09;4998736;28;20485;-84
2021/09/26 06:21:45;;;;;;;6.38;5.65;;;;;;;13.11;100.00;100911.28;4996488;28;20038;-83
2021/09/26 06:24:14;;;;;;;5.28;4.45;;;;;;;13.23;100.00;100903.22;4980189;28;20133;-83
2021/09/26 06:26:41;;;;;;;7.03;5.07;;;;;;;13.34;100.00;100903.03;4991497;28;20053;-84
2021/09/26 06:29:09;;;;;;;6.13;5.32;;;;;;;13.38;100.00;100898.63;4978264;28;20137;-82
2021/09/26 06:31:36;;;;;;;7.32;5.20;;;;;;;13.36;100.00;100906.53;4979031;28;20059;-82
2021/09/26 06:34:04;;;;;;;5.07;4.55;;;;;;;13.34;100.00;100908.28;4994401;28;20157;-83
2021/09/26 06:36:31;;;;;;;5.07;4.57;;;;;;;13.35;100.00;100907.41;4977602;28;20238;-83
2021/09/26 06:38:58;;;;;;;5.53;4.40;;;;;;;13.41;100.00;100906.44;4990851;28;20048;-82
2021/09/26 06:41:25;;;;;;;5.75;3.97;;;;;;;13.46;100.00;100901.97;4994163;28;20128;-82
2021/09/26 06:43:53;;;;;;;5.68;4.80;;;;;;;13.50;100.00;100903.66;4992758;28;20117;-83
2021/09/26 06:46:20;;;;;;;5.63;4.00;;;;;;;13.47;100.00;100908.13;4975444;28;20072;-84
2021/09/26 06:48:46;;;;;;;6.70;4.78;;;;;;;13.47;100.00;100913.41;4977457;28;20627;-84
2021/09/26 06:51:14;;;;;;;4.85;4.15;;;;;;;13.51;100.00;100923.81;4980790;28;20165;-82
2021/09/26 06:53:41;;;;;;;5.07;3.85;;;;;;;13.59;100.00;100915.78;4989206;28;20420;-84
2021/09/26 06:56:07;;;;;;;7.82;4.10;;;;;;;13.82;100.00;100910.13;4987411;28;20053;-82
2021/09/26 06:58:34;;;;;;;5.95;4.00;;;;;;;14.21;99.91;100912.91;4990026;28;20046;-82
2021/09/26 07:01:01;;;;;;;4.65;3.20;;;;;;;14.48;97.36;100917.63;4974200;28;20046;-84
2021/09/26 07:03:27;;;;;;;6.78;5.93;;;;;;;14.80;96.85;100926.66;4993989;28;20046;-82
2021/09/26 07:05:54;;;;;;;5.57;4.32;;;;;;;15.09;95.58;100927.75;4991563;28;20109;-83
2021/09/26 07:08:20;;;;;;;4.90;3.88;;;;;;;15.48;94.10;100931.19;4990279;28;20053;-81
2021/09/26 07:10:49;;;;;;;3.85;3.40;;;;;;;15.67;92.18;100928.06;4986913;28;20101;-83
2021/09/26 07:13:16;;;;;;;4.32;3.55;;;;;;;15.67;90.58;100928.97;4988639;28;20051;-83
2021/09/26 07:15:43;;;;;;;4.00;3.70;;;;;;;15.58;91.52;100918.66;4975575;28;20045;-82
2021/09/26 07:18:09;;;;;;;3.95;3.58;;;;;;;15.48;90.70;100920.63;4990606;28;20362;-80
2021/09/26 07:20:38;;;;;;;4.15;3.30;;;;;;;15.48;91.45;100927.69;4989448;28;20053;-82
2021/09/26 07:23:05;;;;;;;4.88;4.38;;;;;;;15.42;91.42;100930.47;4989938;28;20050;-83
2021/09/26 07:25:32;;;;;;;3.85;3.53;;;;;;;15.37;91.86;100934.09;4991415;28;20515;-83
2021/09/26 07:28:00;;;;;;;5.10;3.33;;;;;;;15.37;91.75;100935.88;4993484;28;20038;-84
2021/09/26 07:30:27;;;;;;;5.40;3.97;;;;;;;15.32;91.75;100933.34;4992953;28;20046;-82
2021/09/26 07:32:53;;;;;;;4.28;3.42;;;;;;;15.29;92.23;100929.91;4984504;28;20409;-82
2021/09/26 07:35:21;;;;;;;5.82;2.88;;;;;;;15.33;92.42;100937.72;4992256;28;20085;-80
2021/09/26 07:37:48;;;;;;;4.53;4.10;;;;;;;15.46;91.86;100943.56;4992510;28;20096;-80
2021/09/26 07:40:15;;;;;;;5.47;3.38;;;;;;;15.62;91.54;100946.69;4991721;28;20038;-81
2021/09/26 07:42:41;;;;;;;8.10;3.47;;;;;;;15.79;91.17;100937.47;4968298;28;20864;-82
2021/09/26 07:45:12;;;;;;;6.60;3.53;;;;;;;16.03;89.91;100933.31;4992570;28;20054;-83
2021/09/26 07:47:38;;;;;;;4.25;2.85;;;;;;;16.63;88.31;100941.34;4989822;28;20092;-81
2021/09/26 07:50:07;;;;;;;3.15;2.88;;;;;;;17.11;85.57;100937.28;4991883;28;20126;-83
2021/09/26 07:52:33;;;;;;;6.95;3.42;;;;;;;17.32;83.66;100941.84;4998865;28;20069;-84
2021/09/26 07:55:00;;;;;;;3.60;3.30;;;;;;;17.33;83.18;100935.66;4981244;28;20141;-85
2021/09/26 07:57:27;;;;;;;4.47;2.88;;;;;;;17.25;83.29;100942.09;4999743;28;20052;-85
2021/09/26 07:59:54;;;;;;;4.32;4.03;;;;;;;17.15;82.94;100936.25;4996003;28;21069;-81
2021/09/26 08:02:20;;;;;;;3.03;2.83;;;;;;;17.12;82.91;100939.00;4988599;28;20054;-82
2021/09/26 08:04:47;;;;;;;2.92;2.72;;;;;;;17.17;83.23;100930.00;4989869;28;20042;-81
2021/09/26 08:07:14;;;;;;;3.03;2.72;;;;;;;17.35;82.54;100936.50;4979571;28;20034;-82
2021/09/26 08:09:41;;;;;;;3.53;3.15;;;;;;;17.49;82.28;100927.22;4976170;28;20093;-81
2021/09/26 08:12:09;;;;;;;3.83;3.35;;;;;;;18.04;78.57;100936.84;4971668;28;20050;-81
2021/09/26 08:14:36;;;;;;;2.78;2.58;;;;;;;18.74;77.02;100933.38;4975347;28;20050;-80
2021/09/26 08:17:03;;;;;;;3.33;2.63;;;;;;;19.56;73.97;100932.78;4990720;28;20038;-83
2021/09/26 08:19:29;;;;;;;3.03;2.35;;;;;;;20.42;70.76;100933.47;4992830;28;20042;-83
2021/09/26 08:21:56;;;;;;;3.50;3.20;;;;;;;21.06;67.11;100928.75;4989749;28;21068;-84
2021/09/26 08:24:23;;;;;;;2.92;2.72;;;;;;;21.53;65.89;100923.81;4976254;28;20050;-82
2021/09/26 08:26:50;;;;;;;2.55;2.30;;;;;;;21.96;64.44;100925.13;4989378;28;20042;-82
2021/09/26 08:29:16;;;;;;;3.10;2.90;;;;;;;22.22;60.60;100922.91;4975092;28;20042;-82
2021/09/26 08:31:43;;;;;;;3.30;3.10;;;;;;;22.39;61.72;100926.50;4988808;28;20046;-82
2021/09/26 08:34:09;;;;;;;2.55;2.42;;;;;;;22.81;60.41;100933.06;4995308;28;20065;-83
2021/09/26 08:36:36;;;;;;;3.85;3.53;;;;;;;22.49;60.27;100930.41;4976754;28;20047;-82
2021/09/26 08:39:03;;;;;;;5.78;3.17;;;;;;;22.22;61.44;100938.91;4979551;28;20379;-82
2021/09/26 08:41:32;;;;;;;3.72;3.20;;;;;;;22.17;61.10;100929.44;4989215;28;20046;-82
2021/09/26 08:44:02;;;;;;;4.25;3.53;;;;;;;22.45;59.91;100928.84;4992734;28;20129;-82
2021/09/26 08:46:29;;;;;;;4.35;3.92;;;;;;;22.82;58.74;100937.47;4994258;28;20050;-83
2021/09/26 08:48:57;;;;;;;3.17;2.97;;;;;;;23.41;57.21;100927.03;4977413;28;20047;-81
2021/09/26 08:51:24;;;;;;;4.60;3.85;;;;;;;23.99;55.44;100937.00;4991977;28;20042;-81
2021/09/26 08:53:51;;;;;;;3.08;2.88;;;;;;;24.33;53.99;100930.44;5005376;28;20066;-82
2021/09/26 08:56:20;;;;;;;3.92;3.50;;;;;;;24.60;53.14;100935.00;4985375;28;20067;-82
2021/09/26 08:58:49;;;;;;;2.83;2.03;;;;;;;24.80;53.11;100938.25;4972549;28;20046;-81
2021/09/26 09:01:17;;;;;;;2.03;1.92;;;;;;;24.55;53.00;100937.97;4982384;28;20534;-81
2021/09/26 09:03:47;;;;;;;2.53;2.33;;;;;;;24.06;54.46;100941.88;5000509;28;20393;-83
2021/09/26 09:06:14;;;;;;;2.50;2.25;;;;;;;23.48;55.50;100950.69;4967948;28;20050;-82
2021/09/26 09:08:41;;;;;;;2.65;2.45;;;;;;;22.89;56.52;100943.31;4998510;28;20070;-83
2021/09/26 09:11:10;;;;;;;4.07;2.58;;;;;;;22.41;57.75;100930.81;5002671;28;20053;-82
2021/09/26 09:13:43;;;;;;;2.70;2.50;;;;;;;21.92;59.01;100934.25;5001972;28;20054;-80
2021/09/26 09:16:19;;;;;;;3.00;2.80;;;;;;;21.41;59.78;100930.63;4967698;28;20077;-80
2021/09/26 09:18:50;;;;;;;2.95;2.70;;;;;;;21.24;60.70;100927.00;4993627;28;20050;-80
2021/09/26 09:21:25;;;;;;;4.35;2.80;;;;;;;20.99;61.44;100924.69;4977270;28;20113;-80
2021/09/26 09:23:55;;;;;;;3.38;3.00;;;;;;;20.84;62.10;100923.59;5007687;28;20050;-80
2021/09/26 09:29:20;;;;;;;2.95;2.15;;;;;;;20.81;62.77;100926.41;4973156;28;20038;-81
2021/09/26 09:31:55;;;;;;;2.55;2.35;;;;;;;20.84;62.97;100920.09;4992604;28;20058;-83
2021/09/26 09:34:47;;;;;;;2.50;2.30;;;;;;;21.13;62.82;100919.53;4995464;28;20489;-83
2021/09/26 09:37:24;;;;;;;3.15;2.20;;;;;;;22.18;59.58;100910.69;4991268;28;20062;-83
2021/09/26 09:40:16;;;;;;;2.42;2.30;;;;;;;23.62;55.26;100906.19;4990917;28;20050;-82
2021/09/26 09:42:48;;;;;;;4.57;2.47;;;;;;;25.17;52.11;100893.84;4985758;28;20188;-83
2021/09/26 09:45:25;;;;;;;4.47;2.80;;;;;;;26.38;48.62;100890.97;5000380;28;20054;-82
2021/09/26 09:48:23;;;;;;;2.80;2.60;;;;;;;27.18;46.17;100900.38;4997151;28;20050;-83
2021/09/26 09:50:59;;;;;;;2.70;1.98;;;;;;;28.13;45.01;100892.22;5000819;28;20050;-80
2021/09/26 09:53:36;;;;;;;3.80;2.42;;;;;;;28.71;42.39;100889.38;4982569;28;20081;-82
2021/09/26 09:56:21;;;;;;;2.92;2.38;;;;;;;29.16;41.61;100887.50;4997015;28;20520;-81
2021/09/26 09:58:50;;;;;;;2.88;2.67;;;;;;;29.54;41.69;100889.69;4983468;28;20101;-81
2021/09/26 10:01:30;;;;;;;2.90;2.33;;;;;;;30.06;40.45;100891.53;4996072;28;20058;-81
2021/09/26 10:04:04;;;;;;;2.17;1.95;;;;;;;30.43;39.63;100901.78;4997998;28;20091;-79
2021/09/26 10:06:48;;;;;;;2.03;1.92;;;;;;;30.69;39.34;100904.03;4996965;28;20139;-80
2021/09/26 10:09:28;;;;;;;3.72;2.58;;;;;;;31.35;37.83;100902.50;5000310;28;20049;-81
2021/09/26 10:12:04;;;;;;;2.88;2.67;;;;;;;31.37;37.92;100905.94;4982227;28;20146;-81
2021/09/26 10:14:34;;;;;;;2.30;2.20;;;;;;;30.88;38.33;100910.44;5006355;28;20052;-84
2021/09/26 10:17:05;;;;;;;3.78;3.33;;;;;;;30.22;39.45;100907.25;5001203;28;20074;-84
2021/09/26 10:19:34;;;;;;;2.70;2.50;;;;;;;30.95;38.43;100916.97;4988038;28;20046;-84
2021/09/26 10:22:05;;;;;;;2.67;2.47;;;;;;;31.81;36.17;100908.16;4983537;28;20522;-82
2021/09/26 10:24:36;;;;;;;2.35;2.25;;;;;;;31.79;36.23;100905.59;4995105;28;20046;-83
2021/09/26 10:27:07;;;;;;;2.25;2.08;;;;;;;30.66;38.31;100904.28;4992329;28;20122;-82
2021/09/26 10:29:36;;;;;;;2.50;2.40;;;;;;;29.86;39.56;100899.50;4995561;28;20057;-84
2021/09/26 10:32:07;;;;;;;3.78;3.05;;;;;;;29.69;39.65;100894.72;4979502;28;20054;-83
2021/09/26 10:34:35;;;;;;;2.42;2.33;;;;;;;30.56;38.08;100893.47;4999436;28;20054;-81
2021/09/26 10:37:09;;;;;;;5.88;5.07;;;;;;;31.63;35.97;100895.38;4985317;28;20808;-83
2021/09/26 10:39:38;;;;;;;2.63;2.53;;;;;;;32.17;34.84;100890.25;4986638;28;20054;-82
2021/09/26 10:42:18;;;;;;;2.88;2.67;;;;;;;33.03;34.14;100895.47;4995442;28;20084;-83
2021/09/26 10:45:02;;;;;;;3.72;2.78;;;;;;;33.63;31.84;100895.63;4996974;28;20098;-83
2021/09/26 10:50:57;;;;;;;2.95;2.63;;;;;;;33.56;31.21;100900.00;4953040;29;20055;-83
2021/09/26 10:54:23;;;;;;;2.47;2.38;;;;;;;33.86;31.47;100897.00;5053137;23;20070;-86
2021/09/26 10:57:12;;;;;;;3.13;2.83;;;;;;;34.44;31.45;100888.13;4979984;28;20050;-83
2021/09/26 10:59:45;;;;;;;2.58;2.35;;;;;;;35.02;30.54;100890.13;4977528;28;20054;-83
2021/09/26 11:02:24;;;;;;;;;;;;;;;35.03;28.80;100895.44;4980551;28;20110;-82
2021/09/26 11:04:54;;;;;;;3.35;3.15;;;;;;;35.81;29.59;100901.34;4993238;28;19922;-80
2021/09/26 11:07:30;;;;;;;2.65;2.47;;;;;;;36.57;28.61;100895.47;4983897;28;20053;-81
2021/09/26 11:10:02;;;;;;;3.85;2.78;;;;;;;36.37;27.98;100905.97;4980222;28;20102;-80
2021/09/26 11:12:43;;;;;;;2.60;2.47;;;;;;;35.27;29.44;100910.06;4965953;28;20109;-81
2021/09/26 11:15:24;;;;;;;2.80;2.60;;;;;;;34.01;30.88;100898.09;4977792;28;20042;-80
2021/09/26 11:17:54;;;;;;;2.83;2.67;;;;;;;32.74;32.90;100888.41;4964018;28;20068;-83
2021/09/26 11:20:26;;;;;;;2.92;2.53;;;;;;;31.96;34.43;100886.91;4964826;28;20050;-81
2021/09/26 11:23:05;;;;;;;;;;;;;;;32.20;33.72;100878.25;4980805;28;20042;-85
2021/09/26 11:26:00;;;;;;;2.60;2.38;;;;;;;32.19;33.79;100875.69;4994491;28;20384;-80
2021/09/26 11:28:40;;;;;;;2.63;2.42;;;;;;;31.44;35.02;100880.00;4982615;28;20042;-81
2021/09/26 11:31:41;;;;;;;4.25;2.67;;;;;;;31.28;35.49;100875.19;4975750;28;20126;-81
2021/09/26 11:34:08;;;;;;;3.45;3.17;;;;;;;31.27;35.47;100876.19;4973670;28;20073;-82
2021/09/26 11:36:37;;;;;;;5.93;3.20;;;;;;;32.05;34.24;100880.59;4978811;28;20050;-84
2021/09/26 11:39:36;;;;;;;2.75;2.58;;;;;;;33.80;32.12;100863.19;4978252;28;20431;-85
2021/09/26 11:42:36;;;;;;;3.65;2.63;;;;;;;35.40;29.38;100863.31;4938341;28;20057;-84
2021/09/26 11:45:12;;;;;;;3.10;2.63;;;;;;;36.62;28.43;100865.78;4994213;28;20113;-83
2021/09/26 11:47:38;;;;;;;4.07;2.83;;;;;;;36.92;27.82;100871.41;4978222;28;20065;-81